CheckWX is a tool to help pilots better visualize weather data.  It is not intended as a substitute for an official pre-flight weather briefing.

18:27:49 UTC

DTTF METAR
Gafsa Ksar International Airport
Gafsa, Tunisia
Current

28 mins ago

DTTF 201800Z 16010KT 8000 SCT026TCU FEW030CB 33/16 Q1011
Observed
Aug-20 @ 18:00 UTC
Wind
  • 160° at 10 KTS
Visibility
8,000 meters
Flight Rules
MVFR
Cloud Levels
  • Scattered at 2,600' AGL
  • Few at 3,000' AGL
Temperature
33°C / 91°F
Dewpoint
16°C / 61°F
Humidity
36%
Altimeter
29.85" Hg
Pressure
1010.92 hPa
Previous

1 hour ago

DTTF 201700Z 16015KT 8000 FEW026 34/16 Q1010 TEMPO SCT026
Observed
Aug-20 @ 17:00 UTC
Wind
  • 160° at 15 KTS
Visibility
8,000 meters
Flight Rules
MVFR
Cloud Levels
  • Few at 2,600' AGL
Temperature
34°C / 93°F
Dewpoint
16°C / 61°F
Humidity
34%
Altimeter
29.82" Hg
Pressure
1009.92 hPa
Previous

2 hours ago

DTTF 201600Z 15012KT 130V190 8000 FEW026 36/16 Q1010 TEMPO SCT026
Observed
Aug-20 @ 16:00 UTC
Wind
  • 150° at 12 KTS
Visibility
8,000 meters
Flight Rules
MVFR
Cloud Levels
  • Few at 2,600' AGL
Temperature
36°C / 97°F
Dewpoint
16°C / 61°F
Humidity
30%
Altimeter
29.82" Hg
Pressure
1009.92 hPa